Lufkin, TX

5:35 PM CST on December 18, 2014 (GMT -0600)
CITY OF HUDSON | Change Station
CLOSE
Current Station
Personal Weather Station
Location: Lufkin, TX
Elevation: 351 ft
Nearby Weather Stations

Elev 351 ft 31.33 °N, 94.78 °W | Updated 2 seconds ago

Overcast
Overcast
55.0 °F
Feels Like 55.0 °F
N
0.6
Wind Variable Wind from WSW
Gusts 0.0 mph

Today
High -- | Low -- °F
--% Chance of Precip.
Yesterday
High -- | Low -- °F
Precip. -- in
7:12 AM 5:19 PM
Waning Crescent, 11% visible
Pressure 30.10 in
Visibility 8.0 miles
Clouds Overcast 1000 ft
Dew Point 55 °F
Humidity 99%
Rainfall 0.00 in
Snow Depth Not available.
UV 0.0 out of 12
Pollen .40 out of 12
Air Quality Not available.
Flu Activity Not available.
SPECI KLFK 182327Z AUTO 06004KT 8SM OVC010 14/11 A3010 RMK AO2 T01440106

More Conditions Fewer Conditions

Pressure 30.10 in
Visibility 8.0 miles
Clouds Overcast 1000 ft
Dew Point 55 °F
Humidity 99%
Rainfall 0.00 in
Snow Depth Not available.
UV 0.0 out of 12
Pollen .40 out of 12
Air Quality Not available.
Flu Activity Not available.
SPECI KLFK 182327Z AUTO 06004KT 8SM OVC010 14/11 A3010 RMK AO2 T01440106

More Conditions Fewer Conditions

10-Day Weather Forecast

Almanac

Astronomy

Dec. 18, 2014 Rise Set
Actual Time
Civil Twilight
Nautical Twilight
Astronomical Twilight
Moon
Length of Visible Light
Length of Day
Tomorrow will be .
, % of the Moon is Illuminated

Today's Extremes

State Highs State Lows

Community

WunderPhotos

Upload Photos

1,779,013 photos uploaded!

WunderBlogs® & News

Nearby

Air Quality

  Air Quality AQ Index Pollutant
Not available.

Snow Depth

Station Depth Elevation

Earthquake Activity

City Distance Mag. Time & Date
Minimum magnitude displayed is 2.5.

Coastal Water Temperatures

Place Temperature

Nearby Weather Stations